Time;durP1;ratioP1;P1;durP2;ratioP2;P2;SDS_P1;SDS_P2;PMS_P1;PMS_P2;Temp;Humidity;BMP_temperature;BMP_pressure;BME280_temperature;BME280_humidity;BME280_pressure;Samples;Min_cycle;Max_cycle;Signal;HPM_P1;HPM_P2
2023/07/02 00:02:15;;;;;;;21.10;18.60;;;;;;;19.90;100.00;97900.64;109521;1252;59085;-77
2023/07/02 00:04:43;;;;;;;19.10;17.10;;;;;;;19.87;100.00;97902.60;109486;1252;65900;-79
2023/07/02 00:07:09;;;;;;;19.50;17.60;;;;;;;19.82;100.00;97900.30;109524;1252;60075;-77
2023/07/02 00:09:36;;;;;;;18.40;16.60;;;;;;;19.81;100.00;97900.13;109514;1252;63766;-77
2023/07/02 00:12:03;;;;;;;17.10;15.50;;;;;;;19.78;100.00;97903.49;109456;1252;58967;-77
2023/07/02 00:14:29;;;;;;;17.30;15.60;;;;;;;19.75;100.00;97903.54;109478;1252;59043;-77
2023/07/02 00:16:56;;;;;;;17.80;16.10;;;;;;;19.74;100.00;97902.20;109542;1252;66026;-78
2023/07/02 00:19:22;;;;;;;17.40;15.70;;;;;;;19.73;100.00;97902.64;109561;1251;58970;-77
2023/07/02 00:21:49;;;;;;;17.80;15.60;;;;;;;19.73;100.00;97901.44;109531;1252;59120;-77
2023/07/02 00:24:16;;;;;;;17.10;15.30;;;;;;;19.71;100.00;97899.33;109497;1252;59035;-78
2023/07/02 00:26:42;;;;;;;17.90;16.00;;;;;;;19.70;100.00;97895.62;109481;1251;59020;-78
2023/07/02 00:29:09;;;;;;;17.40;14.80;;;;;;;19.69;100.00;97896.84;109470;1252;66150;-77
2023/07/02 00:31:36;;;;;;;15.50;14.00;;;;;;;19.68;100.00;97898.83;109488;1252;59863;-78
2023/07/02 00:34:04;;;;;;;16.10;14.50;;;;;;;19.68;100.00;97899.16;109523;1252;64541;-76
2023/07/02 00:36:31;;;;;;;16.80;15.10;;;;;;;19.67;100.00;97893.83;109502;1251;58965;-77
2023/07/02 00:38:58;;;;;;;15.80;14.30;;;;;;;19.65;100.00;97891.08;109522;1252;59166;-75
2023/07/02 00:41:26;;;;;;;17.10;15.40;;;;;;;19.63;100.00;97891.99;109489;1251;65739;-77
2023/07/02 00:43:54;;;;;;;15.40;13.90;;;;;;;19.61;100.00;97889.27;109527;1252;59909;-78
2023/07/02 00:46:25;;;;;;;15.80;14.10;;;;;;;19.61;100.00;97886.60;109487;1252;64151;-77
2023/07/02 00:48:55;;;;;;;16.20;14.70;;;;;;;19.59;100.00;97888.79;109476;1251;58985;-78
2023/07/02 00:51:27;;;;;;;17.10;15.40;;;;;;;19.59;100.00;97888.70;109464;1252;59046;-78
2023/07/02 00:53:55;;;;;;;17.10;15.00;;;;;;;19.58;100.00;97886.64;109528;1252;66575;-77
2023/07/02 00:56:23;;;;;;;16.90;15.10;;;;;;;19.57;100.00;97884.05;109494;1252;60196;-76
2023/07/02 00:58:54;;;;;;;16.60;15.00;;;;;;;19.56;100.00;97882.95;109492;1251;63888;-77
2023/07/02 01:01:22;;;;;;;17.40;14.80;;;;;;;19.56;100.00;97878.66;109531;1252;58982;-76
2023/07/02 01:04:00;;;;;;;16.10;14.40;;;;;;;19.55;100.00;97880.48;109317;1252;59266;-78
2023/07/02 01:06:29;;;;;;;15.80;13.90;;;;;;;19.54;100.00;97883.86;109297;1252;66130;-77
2023/07/02 01:08:58;;;;;;;16.40;14.70;;;;;;;19.53;100.00;97879.30;109488;1251;58961;-76
2023/07/02 01:11:29;;;;;;;16.40;14.80;;;;;;;19.52;100.00;97877.59;109521;1251;63747;-76
2023/07/02 01:14:02;;;;;;;15.60;14.10;;;;;;;19.50;100.00;97874.98;109496;1251;58941;-77
2023/07/02 01:16:32;;;;;;;16.20;14.60;;;;;;;19.48;100.00;97873.41;109522;1251;59120;-76
2023/07/02 01:19:04;;;;;;;15.00;13.40;;;;;;;19.48;100.00;97875.23;109504;1252;65960;-76
2023/07/02 01:21:32;;;;;;;16.60;14.90;;;;;;;19.48;100.00;97877.16;109511;1251;60142;-78
2023/07/02 01:24:03;;;;;;;15.60;14.10;;;;;;;19.47;100.00;97874.77;109487;1251;62978;-75
2023/07/02 01:26:34;;;;;;;15.50;14.00;;;;;;;19.46;100.00;97873.89;109487;1252;59055;-76
2023/07/02 01:29:14;;;;;;;15.60;14.10;;;;;;;19.43;100.00;97870.94;109505;1251;59157;-76
2023/07/02 01:31:40;;;;;;;14.70;13.30;;;;;;;19.40;100.00;97871.64;109538;1252;66074;-76
2023/07/02 01:34:08;;;;;;;14.00;12.60;;;;;;;19.37;100.00;97869.86;109495;1251;59837;-76
2023/07/02 01:36:34;;;;;;;15.90;13.60;;;;;;;19.33;100.00;97867.89;109523;1252;62874;-78
2023/07/02 01:39:01;;;;;;;14.50;12.60;;;;;;;19.24;100.00;97865.71;109511;1252;59531;-78
2023/07/02 01:41:27;;;;;;;16.80;14.20;;;;;;;19.12;100.00;97866.13;109510;1253;58950;-79
2023/07/02 01:43:54;;;;;;;15.00;13.60;;;;;;;19.02;100.00;97863.52;109524;1252;64559;-77
2023/07/02 01:46:21;;;;;;;15.10;13.60;;;;;;;18.94;100.00;97864.45;109500;1253;58932;-80
2023/07/02 01:48:47;;;;;;;15.40;14.00;;;;;;;18.87;100.00;97867.27;109529;1252;62566;-75
2023/07/02 01:51:14;;;;;;;14.90;13.40;;;;;;;18.82;100.00;97865.66;109490;1252;59229;-78
2023/07/02 01:53:40;;;;;;;15.60;13.90;;;;;;;18.79;100.00;97863.02;109523;1252;58930;-75
2023/07/02 01:56:07;;;;;;;16.40;14.90;;;;;;;18.75;100.00;97863.45;109505;1252;59312;-79
2023/07/02 01:58:33;;;;;;;16.00;14.40;;;;;;;18.71;100.00;97865.90;109361;1252;59098;-75
2023/07/02 02:01:00;;;;;;;16.90;14.70;;;;;;;18.67;100.00;97863.55;109497;1253;59047;-76
2023/07/02 02:03:26;;;;;;;16.30;14.70;;;;;;;18.64;100.00;97866.73;109494;1252;58991;-75
2023/07/02 02:05:53;;;;;;;18.40;15.20;;;;;;;18.60;100.00;97866.43;109511;1252;59222;-78
2023/07/02 02:08:19;;;;;;;15.80;14.00;;;;;;;18.58;100.00;97868.47;109534;1252;58980;-78
2023/07/02 02:10:46;;;;;;;16.10;14.50;;;;;;;18.58;100.00;97865.96;109535;1252;60066;-78
2023/07/02 02:13:12;;;;;;;15.80;14.30;;;;;;;18.57;100.00;97863.05;109522;1251;62397;-79
2023/07/02 02:15:39;;;;;;;16.60;14.90;;;;;;;18.56;100.00;97862.09;109491;1253;58981;-76
2023/07/02 02:18:05;;;;;;;16.30;14.80;;;;;;;18.56;100.00;97866.40;109515;1252;59887;-75
2023/07/02 02:20:32;;;;;;;17.40;15.70;;;;;;;18.56;100.00;97866.09;109510;1252;66096;-74
2023/07/02 02:22:59;;;;;;;15.80;14.20;;;;;;;18.54;100.00;97862.67;109546;1253;60169;-78
2023/07/02 02:25:26;;;;;;;17.30;15.60;;;;;;;18.52;100.00;97858.98;109200;1253;64267;-78
2023/07/02 02:27:52;;;;;;;15.80;14.20;;;;;;;18.50;100.00;97858.73;109536;1253;58993;-78
2023/07/02 02:30:19;;;;;;;15.60;14.20;;;;;;;18.46;100.00;97859.33;109555;1251;59116;-79
2023/07/02 02:32:45;;;;;;;17.20;15.60;;;;;;;18.42;100.00;97858.72;109515;1253;64622;-76
2023/07/02 02:35:13;;;;;;;17.30;15.50;;;;;;;18.38;100.00;97860.98;109503;1252;59057;-78
2023/07/02 02:37:39;;;;;;;16.60;15.00;;;;;;;18.35;100.00;97861.87;109541;1253;63741;-79
2023/07/02 02:40:09;;;;;;;16.70;15.10;;;;;;;18.32;100.00;97861.69;109477;1253;59235;-76
2023/07/02 02:42:36;;;;;;;;;;;;;;;18.29;100.00;97861.50;109208;1251;59021;-75
2023/07/02 02:45:03;;;;;;;16.50;14.90;;;;;;;18.25;100.00;97860.92;109515;1252;64511;-76
2023/07/02 02:47:30;;;;;;;16.30;14.50;;;;;;;18.22;100.00;97864.33;109529;1252;59822;-76
2023/07/02 02:49:56;;;;;;;18.50;16.70;;;;;;;18.20;100.00;97863.33;109505;1252;62513;-77
2023/07/02 02:52:23;;;;;;;16.00;14.50;;;;;;;18.18;100.00;97860.81;109499;1253;59147;-78
2023/07/02 02:54:52;;;;;;;16.20;14.70;;;;;;;18.17;100.00;97860.76;109539;1251;59067;-76
2023/07/02 02:57:19;;;;;;;17.50;15.70;;;;;;;18.17;100.00;97862.00;109536;1252;67127;-76
2023/07/02 02:59:46;;;;;;;16.70;14.90;;;;;;;18.17;100.00;97859.81;109513;1253;59827;-76
2023/07/02 03:02:12;;;;;;;16.90;15.20;;;;;;;18.18;100.00;97860.77;109507;1251;65385;-75
2023/07/02 03:04:44;;;;;;;17.90;15.80;;;;;;;18.20;100.00;97859.17;109506;1252;59031;-76
2023/07/02 03:07:10;;;;;;;16.90;15.30;;;;;;;18.23;100.00;97858.11;109529;1252;59012;-76
2023/07/02 03:09:37;;;;;;;17.20;15.10;;;;;;;18.23;100.00;97857.54;109472;1253;59632;-76
2023/07/02 03:12:03;;;;;;;16.30;14.90;;;;;;;18.25;100.00;97859.12;109525;1253;59259;-76
2023/07/02 03:14:30;;;;;;;15.90;14.40;;;;;;;18.29;100.00;97859.39;109486;1252;62508;-76
2023/07/02 03:16:56;;;;;;;15.90;14.50;;;;;;;18.34;100.00;97859.16;109492;1251;59395;-76
2023/07/02 03:19:23;;;;;;;14.60;13.20;;;;;;;18.39;100.00;97861.44;109533;1251;59533;-75
2023/07/02 03:21:49;;;;;;;16.00;14.40;;;;;;;18.45;100.00;97861.25;109248;1252;59096;-77
2023/07/02 03:24:16;;;;;;;15.80;14.10;;;;;;;18.50;100.00;97861.97;109496;1251;59877;-75
2023/07/02 03:26:44;;;;;;;15.80;14.30;;;;;;;18.54;100.00;97859.46;109552;1252;64203;-77
2023/07/02 03:29:11;;;;;;;16.70;15.00;;;;;;;18.57;100.00;97863.79;109513;1251;58988;-76
2023/07/02 03:31:38;;;;;;;15.00;13.60;;;;;;;18.69;100.00;97863.96;109412;1252;58976;-77
2023/07/02 03:34:08;;;;;;;15.30;13.80;;;;;;;19.06;100.00;97863.16;109553;1252;65739;-76
2023/07/02 03:36:38;;;;;;;16.10;14.40;;;;;;;19.54;100.00;97864.73;109506;1251;59122;-76
2023/07/02 03:39:05;;;;;;;15.60;13.20;;;;;;;20.02;100.00;97866.13;109514;1251;62535;-75
2023/07/02 03:41:31;;;;;;;13.70;12.40;;;;;;;20.47;100.00;97864.88;109486;1252;59047;-77
2023/07/02 03:43:58;;;;;;;14.70;13.30;;;;;;;20.89;100.00;97866.36;109471;1252;59073;-75
2023/07/02 03:46:24;;;;;;;13.70;12.40;;;;;;;21.32;100.00;97862.37;109229;1253;65870;-75
2023/07/02 03:48:51;;;;;;;12.20;11.10;;;;;;;21.75;100.00;97861.20;109498;1251;59422;-76
2023/07/02 03:51:17;;;;;;;11.50;10.50;;;;;;;22.20;100.00;97866.35;109492;1252;58957;-77
2023/07/02 03:53:44;;;;;;;12.30;11.20;;;;;;;22.72;100.00;97867.04;109488;1253;58992;-76
2023/07/02 03:56:10;;;;;;;11.70;10.60;;;;;;;23.24;100.00;97869.35;109488;1251;59028;-76
2023/07/02 03:58:37;;;;;;;11.30;10.10;;;;;;;23.78;100.00;97867.85;109527;1253;64894;-76
2023/07/02 04:01:03;;;;;;;12.50;11.20;;;;;;;24.33;100.00;97865.55;109506;1253;60189;-76
2023/07/02 04:03:30;;;;;;;11.70;10.50;;;;;;;24.90;100.00;97871.46;109498;1253;58981;-76
2023/07/02 04:05:56;;;;;;;12.10;11.00;;;;;;;25.56;100.00;97870.20;109211;1251;59051;-77
2023/07/02 04:08:24;;;;;;;11.30;10.20;;;;;;;26.20;100.00;97871.30;109543;1252;59134;-76
2023/07/02 04:10:51;;;;;;;12.20;11.00;;;;;;;26.79;100.00;97868.96;109502;1252;65082;-77
2023/07/02 04:13:18;;;;;;;11.70;10.70;;;;;;;27.31;100.00;97871.63;109500;1252;59226;-77
2023/07/02 04:15:44;;;;;;;10.40;9.60;;;;;;;27.73;100.00;97870.55;109522;1252;64037;-76
2023/07/02 04:18:11;;;;;;;12.20;11.10;;;;;;;28.21;100.00;97870.97;109512;1251;59083;-76
2023/07/02 04:20:38;;;;;;;13.40;11.20;;;;;;;28.71;100.00;97872.69;109557;1252;58868;-76
2023/07/02 04:23:05;;;;;;;11.60;10.60;;;;;;;29.02;100.00;97873.11;109533;1253;66935;-76
2023/07/02 04:25:33;;;;;;;11.60;10.50;;;;;;;29.22;100.00;97881.86;109522;1251;59853;-77
2023/07/02 04:27:59;;;;;;;12.30;11.00;;;;;;;29.16;100.00;97888.85;109527;1252;64003;-76
2023/07/02 04:30:26;;;;;;;11.10;10.20;;;;;;;28.92;100.00;97889.84;109521;1253;58933;-76
2023/07/02 04:32:52;;;;;;;10.30;9.40;;;;;;;28.80;100.00;97887.27;109513;1251;59044;-77
2023/07/02 04:35:19;;;;;;;9.50;8.60;;;;;;;28.85;100.00;97890.81;109524;1255;66090;-77
2023/07/02 04:37:46;;;;;;;10.00;9.30;;;;;;;29.10;100.00;97892.58;109506;1253;59072;-76
2023/07/02 04:40:12;;;;;;;9.10;8.30;;;;;;;29.16;100.00;97893.05;109501;1253;64613;-77
2023/07/02 04:42:41;;;;;;;11.90;8.80;;;;;;;28.56;100.00;97886.27;109536;1252;59111;-76
2023/07/02 04:45:08;;;;;;;8.70;8.00;;;;;;;28.48;100.00;97887.17;109529;1251;58878;-76
2023/07/02 04:47:35;;;;;;;8.70;7.80;;;;;;;28.81;100.00;97888.16;109544;1253;66178;-75
2023/07/02 04:50:01;;;;;;;8.10;7.40;;;;;;;29.28;100.00;97893.08;109518;1253;59011;-76
2023/07/02 04:52:28;;;;;;;8.00;7.30;;;;;;;29.65;100.00;97893.17;109561;1253;62845;-77
2023/07/02 04:54:56;;;;;;;7.90;7.00;;;;;;;30.01;100.00;97891.73;109548;1252;59342;-77
2023/07/02 04:57:22;;;;;;;7.50;6.10;;;;;;;30.01;100.00;97893.50;109553;1253;59041;-76
2023/07/02 04:59:49;;;;;;;9.00;6.70;;;;;;;30.20;100.00;97893.35;109545;1251;66225;-76
2023/07/02 05:02:15;;;;;;;6.80;6.20;;;;;;;30.71;100.00;97891.25;109523;1253;58996;-76
2023/07/02 05:04:42;;;;;;;5.90;5.50;;;;;;;30.98;100.00;97893.45;109517;1253;63816;-75
2023/07/02 05:07:09;;;;;;;6.20;5.40;;;;;;;30.63;100.00;97890.71;109525;1251;58994;-77
2023/07/02 05:09:35;;;;;;;6.80;5.60;;;;;;;29.86;100.00;97889.45;109558;1252;58917;-76
2023/07/02 05:12:02;;;;;;;7.70;5.50;;;;;;;29.25;100.00;97892.09;109515;1253;59323;-76
2023/07/02 05:14:28;;;;;;;5.40;4.80;;;;;;;28.73;100.00;97894.43;109536;1252;59879;-77
2023/07/02 05:16:55;;;;;;;6.10;5.30;;;;;;;28.20;100.00;97899.28;109564;1252;63837;-76
2023/07/02 05:19:22;;;;;;;5.80;5.20;;;;;;;27.80;100.00;97905.27;109494;1253;58951;-77
2023/07/02 05:21:48;;;;;;;6.90;5.00;;;;;;;27.43;100.00;97906.81;109554;1251;58882;-77
2023/07/02 05:24:15;;;;;;;5.80;4.80;;;;;;;27.34;100.00;97912.85;109520;1252;59561;-76
2023/07/02 05:26:41;;;;;;;6.00;5.20;;;;;;;27.20;100.00;97916.16;109490;1253;61358;-77
2023/07/02 05:29:08;;;;;;;5.90;5.30;;;;;;;26.89;100.00;97910.92;109496;1252;64027;-77
2023/07/02 05:31:34;;;;;;;6.60;5.10;;;;;;;26.62;100.00;97914.92;109518;1252;59011;-76
2023/07/02 05:34:01;;;;;;;5.80;5.10;;;;;;;26.22;100.00;97920.63;109492;1253;58956;-76
2023/07/02 05:36:28;;;;;;;7.20;5.50;;;;;;;25.96;100.00;97924.34;109481;1253;64496;-77
2023/07/02 05:38:54;;;;;;;5.20;4.80;;;;;;;25.74;100.00;97926.27;109501;1253;60659;-76
2023/07/02 05:41:22;;;;;;;6.50;5.90;;;;;;;25.57;100.00;97926.16;109554;1253;62905;-76
2023/07/02 05:43:49;;;;;;;5.50;5.00;;;;;;;25.41;100.00;97922.20;109519;1253;59168;-76
2023/07/02 05:46:15;;;;;;;6.00;5.00;;;;;;;25.19;100.00;97925.15;109525;1252;58956;-76
2023/07/02 05:48:42;;;;;;;5.90;5.00;;;;;;;25.01;100.00;97929.60;109520;1253;59770;-76
2023/07/02 05:51:08;;;;;;;6.60;5.20;;;;;;;24.91;100.00;97931.67;109524;1252;59441;-76
2023/07/02 05:53:37;;;;;;;5.50;4.60;;;;;;;24.80;100.00;97930.16;109505;1252;62602;-75
2023/07/02 05:56:03;;;;;;;5.90;5.30;;;;;;;24.66;100.00;97927.15;109516;1253;59108;-76
2023/07/02 05:58:30;;;;;;;5.70;5.10;;;;;;;24.53;100.00;97930.63;109547;1253;58996;-77
2023/07/02 06:00:56;;;;;;;6.40;5.20;;;;;;;24.45;100.00;97934.98;109351;1252;66010;-77
2023/07/02 06:03:23;;;;;;;5.40;4.90;;;;;;;24.47;100.00;97936.94;109506;1253;59431;-77
2023/07/02 06:05:50;;;;;;;6.20;5.60;;;;;;;24.45;100.00;97941.39;109492;1252;65445;-77
2023/07/02 06:08:17;;;;;;;6.00;5.40;;;;;;;24.38;100.00;97941.06;109521;1253;58978;-77
2023/07/02 06:10:46;;;;;;;5.20;4.80;;;;;;;24.36;100.00;97944.48;109507;1253;59030;-76
2023/07/02 06:13:13;;;;;;;5.70;5.00;;;;;;;24.39;100.00;97942.69;109504;1253;64608;-77
2023/07/02 06:15:40;;;;;;;5.60;5.10;;;;;;;24.39;100.00;97943.02;109518;1253;60239;-75
2023/07/02 06:18:06;;;;;;;6.40;4.90;;;;;;;24.43;100.00;97943.44;109283;1251;62927;-76
2023/07/02 06:20:33;;;;;;;5.90;4.90;;;;;;;24.50;100.00;97947.70;109507;1253;59151;-74
2023/07/02 06:22:59;;;;;;;5.30;4.80;;;;;;;24.59;100.00;97948.86;109521;1252;58902;-74
2023/07/02 06:25:26;;;;;;;5.00;4.40;;;;;;;24.74;100.00;97949.15;109470;1253;65701;-74
2023/07/02 06:27:55;;;;;;;6.10;5.30;;;;;;;24.96;100.00;97951.14;109496;1253;59037;-73
2023/07/02 06:30:22;;;;;;;6.00;5.10;;;;;;;25.27;100.00;97953.61;109508;1252;62530;-74
2023/07/02 06:32:48;;;;;;;4.80;4.40;;;;;;;25.47;100.00;97950.45;109506;1253;59145;-74
2023/07/02 06:35:15;;;;;;;7.60;5.00;;;;;;;25.56;100.00;97955.50;109535;1253;59201;-73
2023/07/02 06:37:41;;;;;;;4.50;4.10;;;;;;;25.60;100.00;97955.34;109524;1251;66100;-74
2023/07/02 06:40:08;;;;;;;5.10;4.40;;;;;;;25.57;100.00;97961.91;109526;1252;59042;-75
2023/07/02 06:42:35;;;;;;;6.30;4.80;;;;;;;25.52;100.00;97962.72;109223;1253;63830;-75
2023/07/02 06:45:03;;;;;;;5.80;5.20;;;;;;;25.46;100.00;97962.31;109506;1253;58955;-75
2023/07/02 06:47:30;;;;;;;5.80;4.80;;;;;;;25.57;100.00;97958.23;109551;1253;59048;-75
2023/07/02 06:49:56;;;;;;;4.70;4.20;;;;;;;25.80;100.00;97961.52;109520;1252;66036;-75
2023/07/02 06:52:23;;;;;;;5.50;4.50;;;;;;;25.91;100.00;97962.44;109555;1253;58980;-75
2023/07/02 06:54:50;;;;;;;5.40;4.60;;;;;;;26.11;100.00;97962.52;109551;1253;64216;-74
2023/07/02 06:57:16;;;;;;;6.50;4.40;;;;;;;26.50;100.00;97963.40;109471;1253;58968;-74
2023/07/02 06:59:43;;;;;;;5.30;4.30;;;;;;;26.88;100.00;97965.11;109243;1253;59035;-74
2023/07/02 07:02:09;;;;;;;5.10;4.30;;;;;;;27.25;100.00;97965.19;109533;1252;65001;-74
2023/07/02 07:04:36;;;;;;;7.50;4.40;;;;;;;27.47;100.00;97968.12;109504;1253;59122;-73
2023/07/02 07:07:03;;;;;;;6.40;4.60;;;;;;;27.70;100.00;97968.22;109427;1253;63942;-74
2023/07/02 07:09:30;;;;;;;6.00;5.50;;;;;;;27.84;97.32;97972.76;109513;1253;59058;-74
2023/07/02 07:11:56;;;;;;;7.00;4.80;;;;;;;27.93;87.09;97974.30;109527;1252;59024;-73
2023/07/02 07:14:23;;;;;;;6.50;4.50;;;;;;;28.01;83.81;97977.75;109473;1253;64891;-74
2023/07/02 07:16:50;;;;;;;4.90;4.50;;;;;;;28.04;81.87;97974.42;109273;1253;59140;-74
2023/07/02 07:19:16;;;;;;;7.20;4.60;;;;;;;28.18;78.91;97976.76;109513;1252;64233;-74
2023/07/02 07:21:43;;;;;;;5.10;4.60;;;;;;;28.38;75.42;97987.11;109540;1252;58953;-74
2023/07/02 07:24:10;;;;;;;6.30;4.70;;;;;;;28.52;73.12;97985.78;109505;1253;59056;-74
2023/07/02 07:26:37;;;;;;;7.20;5.10;;;;;;;28.51;70.08;97990.78;109469;1254;64568;-74
2023/07/02 07:29:03;;;;;;;5.50;4.90;;;;;;;28.57;69.18;97991.30;109511;1253;59025;-74
2023/07/02 07:31:30;;;;;;;5.10;4.60;;;;;;;28.86;68.44;97990.95;109499;1255;64103;-74
2023/07/02 07:33:56;;;;;;;5.90;5.00;;;;;;;28.87;68.46;97990.72;109443;1253;58925;-74
2023/07/02 07:36:23;;;;;;;5.70;4.80;;;;;;;28.82;67.47;97993.12;109542;1252;59109;-75
2023/07/02 07:38:49;;;;;;;5.20;4.70;;;;;;;28.68;62.51;97998.64;109496;1253;59189;-74
2023/07/02 07:41:16;;;;;;;4.80;4.30;;;;;;;28.24;58.35;98007.23;109540;1255;58909;-74
2023/07/02 07:43:43;;;;;;;4.80;4.40;;;;;;;27.72;57.42;98012.21;109416;1251;63892;-74
2023/07/02 07:46:09;;;;;;;26.50;6.40;;;;;;;27.33;58.42;98014.77;109510;1253;59054;-75
2023/07/02 07:48:36;;;;;;;5.70;4.70;;;;;;;27.06;59.07;98017.70;109507;1254;58992;-75
2023/07/02 07:51:02;;;;;;;4.70;4.30;;;;;;;26.74;59.22;98015.35;109500;1253;59464;-74
2023/07/02 07:53:29;;;;;;;6.60;4.40;;;;;;;26.44;59.55;98022.93;109569;1253;58964;-73
2023/07/02 07:55:55;;;;;;;4.50;4.00;;;;;;;26.05;59.85;98025.98;109444;1252;59043;-75
2023/07/02 07:58:23;;;;;;;5.50;4.90;;;;;;;25.72;60.86;98029.46;109471;1253;59054;-74
2023/07/02 08:00:50;;;;;;;6.20;4.30;;;;;;;25.46;61.53;98028.53;109572;1253;59029;-74
2023/07/02 08:03:16;;;;;;;4.20;3.90;;;;;;;25.23;61.70;98030.34;109499;1253;59359;-73
2023/07/02 08:05:43;;;;;;;4.30;4.00;;;;;;;25.03;62.08;98032.09;109514;1252;59924;-75
2023/07/02 08:08:09;;;;;;;3.80;3.50;;;;;;;24.94;62.69;98034.23;109468;1253;63868;-74
2023/07/02 08:10:36;;;;;;;6.40;5.00;;;;;;;24.91;63.34;98038.70;109491;1254;59016;-74
2023/07/02 08:13:03;;;;;;;4.80;4.30;;;;;;;24.88;63.74;98039.58;109492;1254;60081;-73
2023/07/02 08:15:29;;;;;;;5.30;4.10;;;;;;;24.88;63.61;98039.05;109532;1254;64861;-74
2023/07/02 08:17:58;;;;;;;5.00;4.50;;;;;;;24.80;63.83;98041.30;109494;1253;59918;-75
2023/07/02 08:20:25;;;;;;;5.20;4.20;;;;;;;24.84;64.43;98042.46;109469;1253;64321;-74
2023/07/02 08:22:51;;;;;;;4.80;4.30;;;;;;;25.00;64.69;98042.62;109469;1253;59077;-74
2023/07/02 08:25:21;;;;;;;5.00;4.60;;;;;;;25.19;65.31;98038.08;109486;1254;58961;-75
2023/07/02 08:27:47;;;;;;;7.00;4.60;;;;;;;25.50;65.58;98038.83;109500;1253;65058;-73
2023/07/02 08:30:14;;;;;;;6.70;4.90;;;;;;;25.87;65.29;98040.09;109480;1253;59010;-76
2023/07/02 08:32:41;;;;;;;5.40;4.50;;;;;;;26.21;64.74;98041.94;109492;1253;62844;-75
2023/07/02 08:35:08;;;;;;;6.20;4.70;;;;;;;26.45;64.23;98041.73;109506;1252;59004;-74
2023/07/02 08:37:34;;;;;;;5.50;5.00;;;;;;;26.62;63.80;98041.20;109530;1254;59022;-74
2023/07/02 08:40:00;;;;;;;5.50;4.70;;;;;;;26.75;63.37;98043.10;109483;1253;58939;-75
2023/07/02 08:42:29;;;;;;;11.00;5.60;;;;;;;26.77;63.06;98040.17;109527;1252;59039;-75
2023/07/02 08:44:57;;;;;;;5.10;4.40;;;;;;;26.77;63.25;98043.48;109493;1251;64152;-74
2023/07/02 08:47:24;;;;;;;7.50;4.80;;;;;;;26.92;63.10;98044.55;109503;1252;59684;-74
2023/07/02 08:49:51;;;;;;;5.60;4.80;;;;;;;27.08;62.63;98047.08;109492;1253;59020;-74
2023/07/02 08:52:17;;;;;;;4.60;4.10;;;;;;;27.13;61.15;98046.08;109471;1254;65742;-74
2023/07/02 08:54:44;;;;;;;5.80;4.50;;;;;;;27.14;61.16;98049.05;109528;1253;59045;-75
2023/07/02 08:57:10;;;;;;;5.30;4.10;;;;;;;27.10;60.86;98053.68;109323;1254;64147;-73
2023/07/02 08:59:37;;;;;;;5.40;4.30;;;;;;;26.84;60.81;98053.02;109437;1254;59298;-75
2023/07/02 09:02:04;;;;;;;4.90;4.50;;;;;;;26.59;61.12;98054.72;109467;1253;58985;-74
2023/07/02 09:04:30;;;;;;;5.40;3.80;;;;;;;26.24;61.65;98063.05;109464;1252;65838;-75
2023/07/02 09:07:08;;;;;;;4.20;3.90;;;;;;;25.84;62.18;98073.02;109180;1254;59462;-74
2023/07/02 09:09:49;;;;;;;4.50;4.10;;;;;;;25.43;63.28;98074.98;109492;1253;64009;-75
2023/07/02 09:12:42;;;;;;;4.80;4.20;;;;;;;25.08;64.46;98079.27;109278;1254;59127;-75
2023/07/02 09:15:08;;;;;;;8.80;5.70;;;;;;;24.63;66.40;98096.41;108931;1260;59071;-75
2023/07/02 09:17:36;;;;;;;5.50;4.70;;;;;;;24.26;67.71;98100.55;108924;1259;66092;-74
2023/07/02 09:20:08;;;;;;;5.40;5.00;;;;;;;24.00;70.03;98108.46;108938;1259;59043;-74
2023/07/02 09:22:35;;;;;;;6.10;5.60;;;;;;;23.69;72.54;98109.48;108834;1260;64291;-74
2023/07/02 09:25:02;;;;;;;6.70;5.90;;;;;;;23.41;74.22;98110.36;108949;1259;59052;-75
2023/07/02 09:27:41;;;;;;;5.40;4.90;;;;;;;23.40;75.61;98107.98;108930;1259;59060;-75
2023/07/02 09:30:18;;;;;;;5.40;5.00;;;;;;;23.55;76.51;98102.98;108945;1260;67107;-73
2023/07/02 09:32:46;;;;;;;6.00;5.50;;;;;;;23.71;77.26;98097.98;108906;1260;59049;-74
2023/07/02 09:35:13;;;;;;;7.60;5.60;;;;;;;23.98;77.80;98097.10;108930;1260;64414;-74
2023/07/02 09:37:43;;;;;;;5.70;5.20;;;;;;;24.25;77.45;98096.11;108892;1260;59184;-73
2023/07/02 09:40:10;;;;;;;6.30;5.80;;;;;;;24.33;76.67;98096.39;108842;1260;164761;-73
2023/07/02 09:42:40;;;;;;;6.50;6.00;;;;;;;24.37;76.96;98094.61;108925;1261;64884;-75
2023/07/02 09:45:10;;;;;;;7.30;5.90;;;;;;;24.69;77.19;98093.09;108857;1260;59050;-74
2023/07/02 09:47:47;;;;;;;5.30;4.80;;;;;;;24.98;76.56;98091.15;108950;1260;62563;-74
2023/07/02 09:50:15;;;;;;;5.50;4.60;;;;;;;25.14;75.18;98089.25;108900;1260;59334;-74
2023/07/02 09:52:45;;;;;;;4.80;4.30;;;;;;;25.31;75.32;98084.52;109335;1253;59018;-74
2023/07/02 09:55:12;;;;;;;4.90;3.60;;;;;;;25.68;75.38;98076.43;109488;1253;66031;-75
2023/07/02 09:57:40;;;;;;;4.40;4.00;;;;;;;26.08;74.51;98079.80;109505;1254;59066;-74
2023/07/02 10:00:08;;;;;;;4.10;3.70;;;;;;;26.31;73.25;98079.36;109475;1253;63828;-74
2023/07/02 10:02:35;;;;;;;4.00;3.60;;;;;;;26.36;72.04;98078.92;109285;1254;59039;-74
2023/07/02 10:05:04;;;;;;;3.70;3.40;;;;;;;26.46;71.07;98078.03;109454;1252;59212;-74
2023/07/02 10:07:34;;;;;;;4.60;3.80;;;;;;;26.70;70.93;98069.80;109453;1252;67426;-73
2023/07/02 10:10:01;;;;;;;7.50;3.70;;;;;;;27.11;70.41;98065.50;109500;1253;59831;-74
2023/07/02 10:12:29;;;;;;;3.80;3.50;;;;;;;27.36;69.76;98071.27;109436;1252;62946;-74
2023/07/02 10:14:58;;;;;;;3.50;3.20;;;;;;;27.34;68.51;98072.03;109469;1253;58999;-74
2023/07/02 10:17:32;;;;;;;3.80;3.50;;;;;;;27.36;67.07;98070.72;109462;1253;58961;-75
2023/07/02 10:20:06;;;;;;;3.40;3.10;;;;;;;27.22;66.96;98063.23;109260;1253;65764;-76
2023/07/02 10:22:47;;;;;;;3.90;2.60;;;;;;;27.31;67.04;98054.93;109455;1252;59382;-74
2023/07/02 10:25:31;;;;;;;2.90;2.70;;;;;;;27.61;66.18;98050.55;109445;1253;64385;-74
2023/07/02 10:27:59;;;;;;;3.60;2.50;;;;;;;27.68;65.98;98049.04;109463;1252;59025;-75
2023/07/02 10:30:34;;;;;;;3.60;3.10;;;;;;;27.75;65.79;98050.20;109460;1253;58998;-75
2023/07/02 10:33:13;;;;;;;3.30;3.00;;;;;;;27.96;65.67;98046.89;109461;1254;65731;-73
2023/07/02 10:35:44;;;;;;;3.70;2.80;;;;;;;28.25;64.55;98046.83;109442;1254;59087;-74
2023/07/02 10:38:15;;;;;;;5.30;3.00;;;;;;;28.42;64.73;98044.58;109467;1252;63019;-75
2023/07/02 10:40:43;;;;;;;2.70;2.50;;;;;;;28.49;64.17;98042.73;109465;1253;58969;-74
2023/07/02 10:43:09;;;;;;;3.20;2.40;;;;;;;28.29;63.23;98039.30;109494;1253;58969;-75
2023/07/02 10:45:36;;;;;;;3.80;2.50;;;;;;;28.07;63.14;98039.69;109463;1254;66133;-74
2023/07/02 10:48:07;;;;;;;3.20;2.80;;;;;;;27.78;63.20;98041.55;109469;1253;58992;-74
2023/07/02 10:50:34;;;;;;;2.80;2.60;;;;;;;27.53;62.22;98043.02;109465;1252;64060;-75
2023/07/02 10:53:02;;;;;;;2.80;2.60;;;;;;;27.35;62.57;98046.88;109459;1252;59133;-75
2023/07/02 10:55:30;;;;;;;3.50;3.20;;;;;;;27.19;63.09;98047.65;109455;1252;59057;-74
2023/07/02 10:58:07;;;;;;;3.10;2.90;;;;;;;27.10;63.35;98045.48;109480;1252;64971;-75
2023/07/02 11:00:47;;;;;;;3.10;2.60;;;;;;;27.23;63.17;98048.85;109495;1253;59096;-74
2023/07/02 11:03:19;;;;;;;3.90;2.90;;;;;;;27.10;63.82;98041.34;109483;1252;62923;-74
2023/07/02 11:05:46;;;;;;;3.10;2.90;;;;;;;26.97;63.77;98033.77;109459;1252;59086;-73
2023/07/02 11:08:13;;;;;;;3.70;3.40;;;;;;;26.88;64.82;98026.98;109476;1253;59034;-74
2023/07/02 11:10:39;;;;;;;3.90;3.60;;;;;;;26.90;65.53;98023.73;109427;1252;66071;-75
2023/07/02 11:13:13;;;;;;;3.80;3.00;;;;;;;27.04;65.97;98019.66;109441;1252;59871;-75
2023/07/02 11:15:41;;;;;;;3.60;3.30;;;;;;;27.20;66.12;98018.04;109407;1254;62729;-75
2023/07/02 11:18:18;;;;;;;3.40;3.20;;;;;;;27.35;65.98;98017.11;109489;1252;59446;-75